Kennedale's Hourly Summary for Thursday, July 5, 2018
Hour Temp
(f)
RH
(%)
Solar Rad.
(MJ/m2)
Rainfall
(in)
Wind
(mph)
7/5/2018 12:00 AM 76 75 0 0 7.53
7/5/2018 1:00 AM 75 78 0 0 3.46
7/5/2018 2:00 AM 74 81 0 0 2.29
7/5/2018 3:00 AM 73 83 0 0 1.62
7/5/2018 4:00 AM 72 86 0 0 1.29
7/5/2018 5:00 AM 72 89 0 0 1.28
7/5/2018 6:00 AM 71 90 0.01 0 0.73
7/5/2018 7:00 AM 73 89 0.17 0 0.95
7/5/2018 8:00 AM 76 81 0.58 0 2.63
7/5/2018 9:00 AM 79 70 1.35 0 3.97
7/5/2018 10:00 AM 81 62 1.75 0 3.69
7/5/2018 11:00 AM 84 53 2.41 0 4.64
7/5/2018 12:00 PM 88 48 2.73 0 4.47
7/5/2018 1:00 PM 91 42 2.94 0 6.1
7/5/2018 2:00 PM 92 40 2.12 0 5.54
7/5/2018 3:00 PM 94 35 2.69 0 4.31
7/5/2018 4:00 PM 94 35 1.87 0 4.25
7/5/2018 5:00 PM 96 34 1.64 0 3.63
7/5/2018 6:00 PM 96 34 1.08 0 3.69
7/5/2018 7:00 PM 94 35 0.34 0 3.8
7/5/2018 8:00 PM 93 38 0.04 0 3.75
7/5/2018 9:00 PM 89 51 0 0 6.76
7/5/2018 10:00 PM 86 57 0 0 5.37
7/5/2018 11:00 PM 85 59 0 0 4.25
Data Summary 83 60 21.72 0.00 3.75